Meteo Giornale » Osservazioni meteo Italia » Venezia-Tessera

ore: 14:50 - Osservazioni Meteo Venezia-Tessera
Lat. 45° 30' N Lon. 12° 20' E Alt. 2 metri s.l.m.

sereno Europe/Rome

20 °C

Sereno

Temp. 24 Ore

10 °C

20 °C

Sud/Sud-Est

9.3 Km/h

Dew point 3 °C

Umidità 32 %

Visibilità  10 Km

Il sole sorge alle ore 06:38

Il sole tramonta alle ore 19:47

Data e Ora Cielo e Fenomeni T °C DP °C Um. % Pres. hPa Vis. km Vento km/h
Oggi h: 14:50 sereno Sereno 20 3 32 1025 10 S/SE 9.3
Oggi h: 14:20 sereno Sereno 20 3 32 1026 10 S/SE 11.1
Oggi h: 13:50 sereno Sereno 20 4 34 1026 10 SE 13
Oggi h: 13:20 sereno Sereno 20 2 30 1026 10 SE 13
Oggi h: 12:50 sereno Sereno 19 1 29 1026 10 E 16.7
Oggi h: 12:20 sereno Sereno 19 3 34 1026 10 E 18.5
Oggi h: 11:50 sereno Sereno 19 4 37 1027 10 E 18.5
Oggi h: 11:20 sereno Sereno 19 2 32 1027 10 E 20.3
Oggi h: 10:50 sereno Sereno 18 3 36 1027 10 E/NE 20.3
Oggi h: 10:20 sereno Sereno 17 2 36 1026 10 E/NE 22.2
Oggi h: 09:50 sereno Sereno 16 2 38 1026 10 E/NE 20.3
Oggi h: 09:20 sereno Sereno 14 2 44 1026 10 NE 18.5
Oggi h: 08:50 sereno Sereno 13 1 43 1026 10 N/NE 14.8
Oggi h: 08:20 sereno Sereno 12 0 43 1026 10 N/NE 14.8
Oggi h: 07:50 sereno Sereno 10 0 49 1026 10 N/NE 14.8
Oggi h: 07:20 sereno Sereno 10 -0 49 1025 10 N/NE 13
Oggi h: 06:50 sereno Sereno 10 -0 49 1025 10 N/NE 13
Oggi h: 06:20 sereno Sereno 10 -0 49 1025 10 N/NE 16.7
Oggi h: 05:50 sereno Sereno 10 0 49 1025 10 N/NE 13
Oggi h: 05:20 sereno Sereno 10 0 49 1025 10 NE 14.8
Oggi h: 04:50 sereno Sereno 10 0 49 1025 10 NE 16.7
Oggi h: 04:20 sereno Sereno 11 0 46 1024 10 N/NE 14.8
Oggi h: 03:50 sereno Sereno 11 -0 46 1025 10 N/NE 14.8
Oggi h: 03:20 sereno Sereno 11 -0 46 1025 10 N/NE 14.8
Oggi h: 02:50 sereno Sereno 11 0 46 1025 10 N/NE 14.8
Oggi h: 02:20 sereno Sereno 11 1 50 1025 10 NE 16.7
Oggi h: 01:50 sereno Sereno 12 0 43 1025 10 N/NE 14.8
Oggi h: 01:20 sereno Sereno 12 0 43 1025 10 N/NE 14.8
Oggi h: 00:50 sereno Sereno 12 1 46 1025 10 N 13
Oggi h: 00:20 sereno Sereno 13 4 54 1025 10 E/NE 13
Ieri h: 23:50 sereno Sereno 15 5 51 1024 10 E 18.5
Ieri h: 23:20 sereno Sereno 15 4 47 1024 10 E 24
Ieri h: 22:50 sereno Sereno 16 5 47 1024 10 E 22.2
Ieri h: 22:20 sereno Sereno 16 5 47 1024 10 E 20.3
Ieri h: 21:50 sereno Sereno 16 4 44 1023 10 E 22.2
Ieri h: 21:20 sereno Sereno 17 5 45 1023 10 E 27.8
Ieri h: 20:50 sereno Sereno 16 5 47 1022 10 E 16.7
Ieri h: 20:20 sereno Sereno 16 7 55 1022 10 E/NE 11.1
Ieri h: 19:50 sereno Sereno 17 6 48 1022 10 E/NE 11.1
Ieri h: 19:20 sereno Sereno 18 5 42 1022 10 E/NE 13
Ieri h: 18:50 sereno Sereno 19 5 39 1022 10 E 14.8
Ieri h: 18:20 sereno Sereno 20 2 30 1022 10 E 18.5
Ieri h: 17:50 sereno Sereno 20 1 28 1022 10 E 18.5
Ieri h: 17:20 sereno Sereno 20 0 26 1022 10 E 18.5
Ieri h: 16:50 sereno Sereno 20 1 28 1022 10 E 20.3
Ieri h: 16:20 sereno Sereno 20 2 30 1022 10 E 20.3
Ieri h: 15:50 sereno Sereno 20 1 28 1023 10 E 20.3